Time;durP1;ratioP1;P1;durP2;ratioP2;P2;SDS_P1;SDS_P2;PMS_P1;PMS_P2;Temp;Humidity;BMP_temperature;BMP_pressure;BME280_temperature;BME280_humidity;BME280_pressure;Samples;Min_cycle;Max_cycle;Signal;HPM_P1;HPM_P2
2021/08/29 00:01:15;;;;;;;14.73;9.23;;;;;;;13.80;87.90;97142.34;1754743;82;20977;-74
2021/08/29 00:03:41;;;;;;;13.85;9.43;;;;;;;13.80;87.86;97145.01;1756913;82;21060;-74
2021/08/29 00:06:08;;;;;;;14.58;10.25;;;;;;;13.76;87.80;97142.13;1756226;82;21055;-74
2021/08/29 00:08:35;;;;;;;12.70;9.68;;;;;;;13.77;88.58;97145.17;1740915;82;20988;-74
2021/08/29 00:11:02;;;;;;;12.25;9.43;;;;;;;13.77;88.46;97141.17;1726151;83;22167;-74
2021/08/29 00:13:29;;;;;;;12.85;9.58;;;;;;;13.76;88.34;97138.13;1726267;83;21043;-74
2021/08/29 00:15:55;;;;;;;13.03;8.90;;;;;;;13.79;89.91;97131.31;1724953;82;21012;-74
2021/08/29 00:18:21;;;;;;;12.15;8.45;;;;;;;13.82;89.92;97122.67;1733515;82;20973;-74
2021/08/29 00:20:48;;;;;;;16.52;9.00;;;;;;;13.84;88.79;97104.78;1753282;82;21000;-74
2021/08/29 00:23:15;;;;;;;10.78;7.22;;;;;;;13.88;89.21;97092.63;1753728;82;20989;-74
2021/08/29 00:25:41;;;;;;;10.55;7.70;;;;;;;13.93;89.68;97088.77;1753764;82;21351;-74
2021/08/29 00:28:08;;;;;;;9.68;7.35;;;;;;;13.99;89.46;97088.87;1744549;80;21016;-74
2021/08/29 00:30:35;;;;;;;13.20;7.42;;;;;;;14.04;90.47;97097.45;1720730;83;20977;-74
2021/08/29 00:33:02;;;;;;;11.75;7.47;;;;;;;14.05;90.88;97111.64;1720671;83;21004;-74
2021/08/29 00:35:30;;;;;;;10.38;7.40;;;;;;;14.05;91.41;97111.64;1720789;83;20989;-74
2021/08/29 00:37:56;;;;;;;10.23;6.60;;;;;;;14.03;91.65;97104.22;1698058;82;20969;-74
2021/08/29 00:40:23;;;;;;;8.93;6.78;;;;;;;14.05;91.04;97097.86;1753807;82;21396;-74
2021/08/29 00:42:50;;;;;;;9.70;6.62;;;;;;;14.11;90.91;97101.48;1753844;82;20989;-74
2021/08/29 00:45:20;;;;;;;10.15;7.05;;;;;;;14.11;91.53;97100.16;1753739;82;20969;-74
2021/08/29 00:47:49;;;;;;;11.12;7.05;;;;;;;14.08;92.54;97096.81;1750111;82;21355;-74
2021/08/29 00:50:17;;;;;;;9.78;6.87;;;;;;;14.09;91.11;97098.06;1720914;83;20957;-74
2021/08/29 00:52:45;;;;;;;11.43;7.55;;;;;;;14.13;91.31;97098.73;1720767;83;21047;-74
2021/08/29 00:55:12;;;;;;;10.13;6.87;;;;;;;14.18;91.49;97095.79;1720880;83;20973;-74
2021/08/29 00:57:43;;;;;;;9.68;6.47;;;;;;;14.15;90.73;97090.16;1721128;82;21461;-74
2021/08/29 01:00:13;;;;;;;9.85;7.10;;;;;;;14.13;90.42;97085.41;1720714;83;20984;-74
2021/08/29 01:02:43;;;;;;;10.10;6.33;;;;;;;14.07;89.55;97081.78;1720685;83;21032;-74
2021/08/29 01:05:17;;;;;;;10.50;6.83;;;;;;;13.99;89.44;97088.87;1692249;83;21008;-74
2021/08/29 01:07:54;;;;;;;10.43;6.85;;;;;;;13.96;89.45;97090.39;1741337;82;20988;-74
2021/08/29 01:10:47;;;;;;;11.78;7.22;;;;;;;13.93;89.81;97094.55;1753999;82;21421;-74
2021/08/29 01:13:31;;;;;;;10.60;7.22;;;;;;;13.93;89.10;97102.09;1754255;81;21005;-74
2021/08/29 01:16:03;;;;;;;11.83;7.45;;;;;;;13.83;90.20;97092.42;1751465;82;20901;-74
2021/08/29 01:18:32;;;;;;;10.70;7.72;;;;;;;13.80;90.59;97097.07;1753822;82;21048;-74
2021/08/29 01:21:05;;;;;;;9.30;7.30;;;;;;;13.79;90.56;97094.87;1753851;82;22237;-74
2021/08/29 01:23:38;;;;;;;13.28;7.65;;;;;;;13.78;90.08;97094.48;1753052;82;21012;-74
2021/08/29 01:26:41;;;;;;;10.28;7.15;;;;;;;13.77;90.72;97093.23;1730216;81;21068;-74
2021/08/29 01:29:11;;;;;;;11.15;7.72;;;;;;;13.73;90.75;97105.42;1720980;83;21015;-75
2021/08/29 01:31:41;;;;;;;12.60;7.70;;;;;;;13.75;89.71;97104.47;1720892;83;21482;-74
2021/08/29 01:34:11;;;;;;;11.25;7.60;;;;;;;13.74;89.62;97099.60;1720794;83;21004;-74
2021/08/29 01:36:42;;;;;;;10.32;7.20;;;;;;;13.71;91.22;97084.66;1751791;82;21005;-75
2021/08/29 01:39:11;;;;;;;10.30;7.80;;;;;;;13.70;90.56;97092.27;1752932;82;21001;-75
2021/08/29 01:41:41;;;;;;;11.33;7.60;;;;;;;13.70;90.73;97083.44;1753756;82;20989;-74
2021/08/29 01:44:09;;;;;;;10.95;7.87;;;;;;;13.69;90.07;97076.38;1753926;82;21000;-75
2021/08/29 01:46:39;;;;;;;11.88;7.78;;;;;;;13.69;89.75;97077.70;1723831;82;21500;-75
2021/08/29 01:49:11;;;;;;;10.60;7.08;;;;;;;13.70;89.96;97072.30;1720907;83;21080;-74
2021/08/29 01:51:41;;;;;;;15.13;6.80;;;;;;;13.65;91.28;97065.51;1692195;83;20964;-74
2021/08/29 01:54:15;;;;;;;8.63;6.25;;;;;;;13.66;92.00;97059.27;1718881;83;21024;-74
2021/08/29 01:57:13;;;;;;;7.90;5.47;;;;;;;13.68;91.34;97052.91;1708618;82;20941;-74
2021/08/29 01:59:38;;;;;;;10.03;5.92;;;;;;;13.70;91.22;97060.81;1720687;83;21051;-75
2021/08/29 02:02:06;;;;;;;7.20;5.53;;;;;;;13.70;91.59;97066.97;1720835;83;21000;-74
2021/08/29 02:04:34;;;;;;;7.35;4.92;;;;;;;13.73;91.63;97069.47;1721633;82;21076;-74
2021/08/29 02:07:27;;;;;;;6.47;4.30;;;;;;;13.70;91.58;97079.45;1753655;81;20988;-75
2021/08/29 02:10:04;;;;;;;8.95;4.97;;;;;;;13.61;91.34;97082.63;1751280;82;21020;-74
2021/08/29 02:12:36;;;;;;;7.55;3.77;;;;;;;13.51;91.81;97078.28;1753299;82;21426;-74
2021/08/29 02:15:08;;;;;;;4.97;3.62;;;;;;;13.37;92.03;97081.70;1746033;82;21056;-74
2021/08/29 02:17:36;;;;;;;6.33;3.37;;;;;;;13.34;92.48;97090.22;1720665;83;21059;-75
2021/08/29 02:20:12;;;;;;;6.40;3.30;;;;;;;13.29;92.29;97085.62;1720930;83;20973;-75
2021/08/29 02:22:39;;;;;;;6.85;3.10;;;;;;;13.29;91.50;97088.78;1720786;83;21012;-75
2021/08/29 02:25:09;;;;;;;3.25;2.72;;;;;;;13.31;91.96;97098.85;1727900;82;21012;-74
2021/08/29 02:27:38;;;;;;;5.33;3.25;;;;;;;13.30;91.59;97098.01;1753938;82;21439;-75
2021/08/29 02:30:07;;;;;;;5.10;3.00;;;;;;;13.30;92.87;97109.11;1722383;82;21079;-74
2021/08/29 02:32:39;;;;;;;4.60;3.25;;;;;;;13.31;92.02;97108.16;1720717;83;21004;-75
2021/08/29 02:35:08;;;;;;;5.85;3.52;;;;;;;13.30;91.65;97109.11;1727210;82;20985;-75
2021/08/29 02:37:39;;;;;;;3.37;2.60;;;;;;;13.27;91.83;97114.59;1752288;82;21007;-75
2021/08/29 02:40:09;;;;;;;5.30;2.95;;;;;;;13.28;91.38;97117.64;1753898;82;21454;-75
2021/08/29 02:42:38;;;;;;;3.58;2.47;;;;;;;13.27;91.25;97126.11;1750954;82;20980;-75
2021/08/29 02:45:10;;;;;;;3.85;2.80;;;;;;;13.24;91.66;97129.42;1747047;82;21002;-75
2021/08/29 02:47:37;;;;;;;4.78;3.08;;;;;;;13.22;91.36;97130.83;1720751;83;21020;-75
2021/08/29 02:50:06;;;;;;;6.28;3.52;;;;;;;13.20;90.96;97126.91;1720744;83;21115;-75
2021/08/29 02:52:34;;;;;;;4.12;3.12;;;;;;;13.18;92.04;97107.52;1692123;83;20984;-74
2021/08/29 02:55:03;;;;;;;5.97;3.70;;;;;;;13.19;92.35;97099.92;1723886;82;21004;-75
2021/08/29 02:57:34;;;;;;;7.62;3.72;;;;;;;13.20;92.50;97100.30;1726448;82;20997;-75
2021/08/29 03:00:20;;;;;;;5.47;3.65;;;;;;;13.18;92.30;97109.31;1753912;82;20969;-75
2021/08/29 03:02:48;;;;;;;5.62;3.65;;;;;;;13.16;91.74;97116.04;1721709;82;20952;-75
2021/08/29 03:05:16;;;;;;;7.85;4.20;;;;;;;13.13;91.59;97108.70;1747854;82;21457;-75
2021/08/29 03:07:43;;;;;;;6.28;3.95;;;;;;;13.07;92.36;97112.09;1720806;83;21005;-75
2021/08/29 03:10:11;;;;;;;12.10;4.58;;;;;;;13.03;93.08;97101.68;1692147;83;20985;-76
2021/08/29 03:12:39;;;;;;;10.48;4.47;;;;;;;12.97;92.51;97112.20;1720758;83;20996;-75
2021/08/29 03:15:25;;;;;;;10.55;4.90;;;;;;;12.93;93.15;97115.95;1728501;82;20969;-75
2021/08/29 03:17:53;;;;;;;7.10;4.37;;;;;;;12.91;93.00;97107.19;1755970;82;20993;-75
2021/08/29 03:20:20;;;;;;;10.65;4.53;;;;;;;12.85;95.37;97096.88;1757026;82;21498;-75
2021/08/29 03:22:49;;;;;;;8.48;4.75;;;;;;;12.80;95.92;97101.12;1757013;81;21036;-75
2021/08/29 03:25:21;;;;;;;8.03;4.67;;;;;;;12.76;93.99;97108.42;1730732;82;21007;-75
2021/08/29 03:27:48;;;;;;;6.85;4.47;;;;;;;12.75;93.60;97098.70;1699199;83;21039;-76
2021/08/29 03:30:16;;;;;;;7.25;4.75;;;;;;;12.71;94.30;97093.15;1726233;83;20972;-75
2021/08/29 03:32:45;;;;;;;12.18;4.87;;;;;;;12.66;97.03;97093.86;1699258;83;21501;-76
2021/08/29 03:35:14;;;;;;;7.92;4.87;;;;;;;12.64;95.95;97095.30;1750676;82;21461;-76
2021/08/29 03:37:45;;;;;;;6.47;4.58;;;;;;;12.66;94.83;97098.72;1756657;82;21442;-76
2021/08/29 03:40:13;;;;;;;6.95;4.92;;;;;;;12.66;94.66;97091.20;1731033;82;20981;-76
2021/08/29 03:42:40;;;;;;;7.62;5.03;;;;;;;12.65;94.45;97078.86;1756964;81;21008;-76
2021/08/29 03:45:08;;;;;;;5.72;4.08;;;;;;;12.68;94.40;97084.87;1733242;82;20960;-76
2021/08/29 03:47:36;;;;;;;10.75;4.78;;;;;;;12.71;95.04;97077.69;1726078;83;21035;-76
2021/08/29 03:50:07;;;;;;;6.37;4.80;;;;;;;12.75;95.13;97076.59;1726290;83;21020;-76
2021/08/29 03:52:36;;;;;;;8.98;5.20;;;;;;;12.80;95.09;97075.38;1726200;82;21055;-75
2021/08/29 03:55:16;;;;;;;5.75;4.17;;;;;;;12.85;95.46;97067.63;1746942;82;20997;-75
2021/08/29 03:57:43;;;;;;;7.75;4.28;;;;;;;12.88;94.67;97067.48;1731642;82;21024;-75
2021/08/29 04:00:11;;;;;;;6.65;4.17;;;;;;;12.90;96.83;97073.10;1756991;81;21553;-75
2021/08/29 04:02:45;;;;;;;7.22;4.47;;;;;;;12.94;96.06;97076.45;1756697;81;21028;-75
2021/08/29 04:05:15;;;;;;;6.75;4.65;;;;;;;12.99;95.74;97074.89;1745608;81;20985;-75
2021/08/29 04:07:43;;;;;;;6.50;4.00;;;;;;;13.02;95.24;97072.91;1756440;82;20988;-75
2021/08/29 04:10:12;;;;;;;7.55;4.47;;;;;;;13.03;95.79;97056.00;1731268;82;21028;-75
2021/08/29 04:12:42;;;;;;;7.47;3.65;;;;;;;13.06;95.37;97051.86;1755874;82;21071;-75
2021/08/29 04:15:28;;;;;;;6.35;3.95;;;;;;;13.03;95.38;97056.00;1730350;82;20961;-75
2021/08/29 04:17:56;;;;;;;4.97;3.67;;;;;;;13.06;96.61;97063.83;1722773;82;21043;-75
2021/08/29 04:20:23;;;;;;;4.28;3.17;;;;;;;13.06;96.71;97063.83;1720705;83;21030;-75
2021/08/29 04:22:50;;;;;;;4.17;2.90;;;;;;;13.09;96.40;97067.25;1720730;83;21044;-75
2021/08/29 04:25:18;;;;;;;5.37;3.42;;;;;;;13.03;96.27;97088.38;1746089;82;20972;-75
2021/08/29 04:27:45;;;;;;;4.95;3.27;;;;;;;12.93;96.18;97080.05;1753936;82;21018;-75
2021/08/29 04:30:13;;;;;;;9.70;6.47;;;;;;;12.93;97.31;97078.73;1753786;82;21036;-75
2021/08/29 04:32:44;;;;;;;25.43;15.93;;;;;;;12.95;96.22;97074.17;1742005;82;21008;-75
2021/08/29 04:35:12;;;;;;;5.65;3.65;;;;;;;12.96;96.13;97063.95;1720823;83;21025;-75
2021/08/29 04:37:42;;;;;;;8.63;5.62;;;;;;;12.99;96.93;97065.09;1720693;83;21052;-75
2021/08/29 04:40:11;;;;;;;5.47;3.47;;;;;;;13.02;95.80;97057.41;1720410;83;21501;-75
2021/08/29 04:42:39;;;;;;;4.37;2.95;;;;;;;13.03;96.98;97057.79;1730755;82;20985;-75
2021/08/29 04:45:06;;;;;;;6.67;3.67;;;;;;;13.08;96.76;97045.09;1753878;82;21008;-75
2021/08/29 04:47:34;;;;;;;5.78;3.45;;;;;;;13.10;97.73;97048.55;1753931;82;20984;-75
2021/08/29 04:50:01;;;;;;;7.62;3.42;;;;;;;13.14;97.01;97043.91;1753794;82;21024;-75
2021/08/29 04:52:30;;;;;;;6.25;3.40;;;;;;;13.14;96.74;97038.13;1745788;82;21017;-76
2021/08/29 04:54:59;;;;;;;4.83;3.58;;;;;;;13.12;96.26;97028.03;1720942;83;21466;-75
2021/08/29 04:57:26;;;;;;;5.65;3.33;;;;;;;13.10;96.54;97027.73;1720801;83;21017;-75
2021/08/29 04:59:52;;;;;;;8.05;4.35;;;;;;;13.07;96.51;97032.28;1720889;83;21487;-75
2021/08/29 05:02:20;;;;;;;6.22;3.45;;;;;;;13.10;96.86;97029.92;1725952;82;21013;-75
2021/08/29 05:04:48;;;;;;;4.60;3.17;;;;;;;13.12;96.12;97010.73;1753928;82;21371;-75
2021/08/29 05:07:15;;;;;;;5.75;3.60;;;;;;;13.10;97.01;97017.09;1753959;82;21064;-75
2021/08/29 05:09:42;;;;;;;7.15;4.05;;;;;;;13.10;97.69;97019.29;1721657;82;20945;-75
2021/08/29 05:12:09;;;;;;;4.50;3.52;;;;;;;13.13;96.41;97023.58;1750932;82;21008;-75
2021/08/29 05:14:38;;;;;;;6.28;3.83;;;;;;;13.06;95.99;97022.59;1720871;83;21085;-75
2021/08/29 05:17:05;;;;;;;6.40;4.12;;;;;;;13.04;97.90;97024.47;1719332;81;22215;-75
2021/08/29 05:19:33;;;;;;;5.70;3.70;;;;;;;13.03;96.56;97009.45;1709534;84;20981;-75
2021/08/29 05:22:02;;;;;;;6.45;3.70;;;;;;;13.02;97.64;96979.82;1706531;83;21005;-76
2021/08/29 05:24:33;;;;;;;7.45;3.77;;;;;;;13.00;97.51;96987.01;1725357;83;21483;-75
2021/08/29 05:27:01;;;;;;;5.12;3.95;;;;;;;12.98;97.00;97010.19;1726713;82;21065;-75
2021/08/29 05:29:28;;;;;;;8.00;3.70;;;;;;;12.94;98.47;97028.13;1723131;83;20948;-75
2021/08/29 05:31:56;;;;;;;51.13;36.85;;;;;;;12.89;97.80;97014.67;1721429;83;21023;-75
2021/08/29 05:34:30;;;;;;;7.60;5.12;;;;;;;12.87;96.74;97001.46;1662432;86;21521;-75
2021/08/29 05:36:57;;;;;;;4.53;3.33;;;;;;;12.82;96.98;96988.89;1664159;86;21450;-75
2021/08/29 05:39:24;;;;;;;5.47;3.62;;;;;;;12.83;97.54;96995.08;1664017;86;21039;-76
2021/08/29 05:41:51;;;;;;;4.00;2.87;;;;;;;12.72;99.15;97036.41;1693086;83;21228;-75
2021/08/29 05:44:37;;;;;;;4.35;3.30;;;;;;;12.67;98.63;97046.43;1696381;83;20957;-75
2021/08/29 05:47:04;;;;;;;3.85;3.10;;;;;;;12.61;97.28;97031.66;1691912;85;21458;-75
2021/08/29 05:49:32;;;;;;;4.90;3.17;;;;;;;12.54;98.43;97025.80;1691946;84;21072;-75
2021/08/29 05:51:59;;;;;;;4.70;3.60;;;;;;;12.50;97.97;97011.45;1720443;83;20923;-75
2021/08/29 05:54:26;;;;;;;3.37;2.85;;;;;;;12.48;98.28;97008.87;1721363;83;21464;-75
2021/08/29 05:56:54;;;;;;;5.03;3.50;;;;;;;12.51;98.33;96999.38;1721405;83;21039;-75
2021/08/29 05:59:21;;;;;;;4.55;3.22;;;;;;;12.51;98.25;96997.21;1721447;83;21019;-75
2021/08/29 06:01:47;;;;;;;4.15;2.95;;;;;;;12.50;98.27;97004.31;1695554;83;20961;-76
2021/08/29 06:04:15;;;;;;;4.67;3.40;;;;;;;12.49;99.11;97029.17;1691886;85;21004;-75
2021/08/29 06:06:46;;;;;;;3.92;3.00;;;;;;;12.50;99.25;97038.02;1691881;84;21005;-75
2021/08/29 06:09:13;;;;;;;3.83;3.00;;;;;;;12.52;99.80;97060.92;1691679;85;21021;-75
2021/08/29 06:11:39;;;;;;;3.60;2.58;;;;;;;12.51;99.80;97063.16;1715652;83;21014;-75
2021/08/29 06:14:06;;;;;;;3.35;2.52;;;;;;;12.54;98.84;97059.48;1721492;83;21035;-75
2021/08/29 06:16:34;;;;;;;2.75;1.87;;;;;;;12.57;98.65;97054.02;1721304;83;21346;-75
2021/08/29 06:19:01;;;;;;;12.37;8.23;;;;;;;12.57;98.40;97056.67;1732797;83;21444;-75
2021/08/29 06:21:27;;;;;;;3.12;2.17;;;;;;;12.63;98.58;97069.63;1765911;80;20956;-75
2021/08/29 06:23:54;;;;;;;2.45;1.80;;;;;;;12.68;99.02;97068.92;1758159;82;20920;-75
2021/08/29 06:26:39;;;;;;;2.98;1.82;;;;;;;12.74;98.68;97070.89;1757875;82;21043;-75
2021/08/29 06:29:25;;;;;;;2.47;1.70;;;;;;;12.80;98.25;97070.06;1757642;82;22202;-75
2021/08/29 06:32:07;;;;;;;1.90;1.40;;;;;;;12.85;97.84;97067.17;1734649;80;21131;-75
2021/08/29 06:34:36;;;;;;;3.20;1.40;;;;;;;12.87;96.94;97069.76;1784311;80;21040;-75
2021/08/29 06:37:04;;;;;;;1.50;1.30;;;;;;;12.90;97.35;97076.22;1784099;79;21012;-75
2021/08/29 06:39:31;;;;;;;3.72;1.70;;;;;;;12.94;97.11;97064.02;1786758;80;21453;-75
2021/08/29 06:41:57;;;;;;;2.20;1.47;;;;;;;13.00;97.96;97067.29;1760908;80;20947;-75
2021/08/29 06:44:25;;;;;;;1.67;1.42;;;;;;;13.06;98.25;97066.48;1757742;82;21027;-75
2021/08/29 06:47:10;;;;;;;2.58;1.82;;;;;;;13.11;97.52;97058.23;1757645;82;21075;-75
2021/08/29 06:49:54;;;;;;;;;;;;;;;13.19;97.41;97063.13;1780982;80;20968;-75
2021/08/29 06:52:39;;;;;;;2.35;1.60;;;;;;;13.26;97.30;97065.86;1786839;80;20089;-75
2021/08/29 06:55:24;;;;;;;2.02;1.67;;;;;;;13.34;97.39;97067.59;1786765;80;20993;-75
2021/08/29 06:58:09;;;;;;;1.70;1.50;;;;;;;13.46;98.04;97073.20;1788018;80;21040;-75
2021/08/29 07:00:37;;;;;;;1.65;1.30;;;;;;;13.52;97.31;97072.00;1785961;80;21423;-75
2021/08/29 07:03:05;;;;;;;2.35;1.47;;;;;;;13.59;97.26;97072.91;1786653;80;21071;-75
2021/08/29 07:05:32;;;;;;;2.33;1.70;;;;;;;13.63;96.94;97060.76;1786791;80;21437;-75
2021/08/29 07:08:18;;;;;;;4.60;1.90;;;;;;;13.66;96.34;97069.42;1784901;80;21068;-75
2021/08/29 07:10:46;;;;;;;2.35;1.70;;;;;;;13.65;96.19;97069.50;1757829;82;21373;-75
2021/08/29 07:13:30;;;;;;;1.90;1.57;;;;;;;13.65;95.98;97077.03;1722257;82;21465;-75
2021/08/29 07:15:58;;;;;;;2.20;2.00;;;;;;;13.62;95.37;97085.67;1757843;82;21468;-75
2021/08/29 07:18:25;;;;;;;1.90;1.40;;;;;;;13.59;95.95;97087.55;1753270;81;21023;-75
2021/08/29 07:20:56;;;;;;;3.98;1.70;;;;;;;13.58;95.39;97092.48;1755230;81;21107;-75
2021/08/29 07:23:41;;;;;;;2.10;1.75;;;;;;;13.57;96.22;97093.44;1760095;81;21347;-75
2021/08/29 07:26:13;;;;;;;3.50;2.55;;;;;;;13.57;95.92;97093.44;1687844;81;21115;-75
2021/08/29 07:28:56;;;;;;;2.62;1.67;;;;;;;13.57;95.62;97093.44;1757388;81;21024;-75
2021/08/29 07:31:24;;;;;;;2.15;1.95;;;;;;;13.55;95.62;97089.15;1700907;82;20988;-75
2021/08/29 07:33:51;;;;;;;2.30;2.10;;;;;;;13.57;95.74;97085.45;1747532;82;21040;-75
2021/08/29 07:36:22;;;;;;;2.10;1.70;;;;;;;13.62;96.24;97084.34;1746853;82;21003;-75
2021/08/29 07:38:50;;;;;;;2.98;1.70;;;;;;;13.66;95.80;97090.72;1747099;81;21098;-75
2021/08/29 07:41:17;;;;;;;2.87;1.67;;;;;;;13.71;96.18;97082.00;1760284;81;21478;-75
2021/08/29 07:43:44;;;;;;;2.10;1.90;;;;;;;13.75;96.51;97085.83;1760305;81;21053;-75
2021/08/29 07:46:11;;;;;;;2.12;1.80;;;;;;;13.81;96.11;97086.80;1760061;81;21116;-75
2021/08/29 07:48:38;;;;;;;1.90;1.65;;;;;;;13.82;95.69;97083.18;1759234;81;21049;-75
2021/08/29 07:51:06;;;;;;;2.72;2.12;;;;;;;13.81;95.89;97081.02;1723234;81;21012;-75
2021/08/29 07:53:38;;;;;;;2.33;1.70;;;;;;;13.83;95.63;97082.27;1755862;81;20997;-75
2021/08/29 07:56:24;;;;;;;17.73;11.28;;;;;;;13.85;96.37;97079.02;1760192;81;21083;-75
2021/08/29 07:58:51;;;;;;;18.77;11.12;;;;;;;13.86;95.61;97075.41;1758240;81;20968;-75
2021/08/29 08:01:17;;;;;;;1.90;1.70;;;;;;;13.88;95.29;97073.53;1747074;82;21048;-75
2021/08/29 08:03:46;;;;;;;1.92;1.72;;;;;;;13.90;95.02;97072.11;1747413;82;21059;-75
2021/08/29 08:06:31;;;;;;;1.42;1.22;;;;;;;14.00;95.48;97075.95;1747416;82;21011;-75
2021/08/29 08:09:03;;;;;;;3.17;1.42;;;;;;;14.06;94.50;97066.72;1730647;81;21080;-75
2021/08/29 08:11:50;;;;;;;1.30;1.10;;;;;;;14.12;95.18;97071.72;1759709;81;21055;-75
2021/08/29 08:14:18;;;;;;;1.40;1.02;;;;;;;14.18;94.89;97066.48;1760150;81;21065;-75
2021/08/29 08:16:45;;;;;;;1.27;1.07;;;;;;;14.24;94.73;97070.10;1760490;81;21576;-75
2021/08/29 08:19:19;;;;;;;1.50;1.00;;;;;;;14.32;94.58;97058.52;1760011;81;21414;-75
2021/08/29 08:21:45;;;;;;;1.95;1.00;;;;;;;14.39;94.06;97065.67;1747443;82;21066;-75
2021/08/29 08:24:23;;;;;;;1.22;1.05;;;;;;;14.46;93.93;97071.03;1747047;82;21418;-75
2021/08/29 08:27:08;;;;;;;1.90;0.80;;;;;;;14.52;93.19;97072.45;1749321;81;21386;-75
2021/08/29 08:29:53;;;;;;;0.95;0.72;;;;;;;14.53;92.83;97078.16;1747277;82;21028;-75
2021/08/29 08:32:34;;;;;;;2.67;0.90;;;;;;;14.54;93.16;97073.23;1698069;82;20979;-75
2021/08/29 08:35:15;;;;;;;0.82;0.80;;;;;;;14.59;91.74;97080.48;1698726;81;20992;-75
2021/08/29 08:37:51;;;;;;;1.98;1.22;;;;;;;14.60;92.71;97072.85;1775890;81;21482;-75
2021/08/29 08:40:41;;;;;;;1.57;1.35;;;;;;;14.61;93.71;97073.69;1776109;81;21063;-75
2021/08/29 08:43:12;;;;;;;3.50;1.20;;;;;;;14.62;92.21;97072.77;1775175;81;21488;-75
2021/08/29 08:45:57;;;;;;;1.10;0.93;;;;;;;14.55;91.84;97073.61;1768037;81;21028;-75
2021/08/29 08:48:44;;;;;;;1.57;0.88;;;;;;;14.51;91.27;97069.41;1747314;82;20948;-75
2021/08/29 08:51:34;;;;;;;1.32;1.15;;;;;;;14.49;90.86;97065.50;1747308;82;21118;-75
2021/08/29 08:54:19;;;;;;;1.50;1.20;;;;;;;14.38;90.50;97069.30;1747606;82;21406;-74
2021/08/29 08:56:51;;;;;;;1.65;1.10;;;;;;;14.33;91.16;97069.55;1759981;81;21021;-74
2021/08/29 08:59:22;;;;;;;;;;;;;;;14.39;91.76;97063.02;1775895;81;21080;-74
2021/08/29 09:02:09;;;;;;;1.57;1.20;;;;;;;14.50;91.88;97065.03;1775762;80;20112;-74
2021/08/29 09:04:44;;;;;;;1.20;1.00;;;;;;;14.57;91.90;97063.70;1759856;79;20992;-74
2021/08/29 09:07:12;;;;;;;1.37;1.10;;;;;;;14.63;91.93;97059.34;1747232;82;21083;-74
2021/08/29 09:09:39;;;;;;;2.50;1.07;;;;;;;14.71;90.90;97068.67;1747391;82;21104;-75
2021/08/29 09:12:06;;;;;;;1.87;1.20;;;;;;;14.71;90.45;97068.20;1747597;82;21590;-75
2021/08/29 09:14:44;;;;;;;1.02;0.95;;;;;;;14.76;91.43;97066.61;1757299;81;21467;-74
2021/08/29 09:17:37;;;;;;;1.92;1.42;;;;;;;14.81;91.18;97075.19;1751969;80;21020;-75
2021/08/29 09:20:30;;;;;;;1.98;1.40;;;;;;;14.85;91.53;97066.05;1769971;81;21040;-75
2021/08/29 09:23:05;;;;;;;2.30;1.62;;;;;;;14.90;90.14;97068.41;1769553;81;21441;-74
2021/08/29 09:25:45;;;;;;;11.05;4.33;;;;;;;14.96;91.40;97069.39;1746373;81;21051;-75
2021/08/29 09:28:17;;;;;;;3.33;2.72;;;;;;;15.02;91.08;97066.79;1738558;82;20985;-75
2021/08/29 09:30:56;;;;;;;2.05;1.85;;;;;;;15.04;90.12;97062.23;1740681;81;21036;-75
2021/08/29 09:33:31;;;;;;;3.08;1.70;;;;;;;15.05;90.64;97065.27;1714550;81;20982;-75
2021/08/29 09:35:58;;;;;;;2.12;1.65;;;;;;;15.00;89.90;97059.37;1769813;81;21022;-75
2021/08/29 09:38:42;;;;;;;1.90;1.50;;;;;;;15.04;89.79;97066.23;1769344;81;21000;-75
2021/08/29 09:41:25;;;;;;;2.50;1.35;;;;;;;15.09;90.33;97067.27;1768813;81;21417;-75
2021/08/29 09:43:54;;;;;;;2.08;1.55;;;;;;;15.14;90.42;97062.03;1753378;81;20974;-75
2021/08/29 09:46:21;;;;;;;3.08;1.50;;;;;;;15.19;90.07;97063.05;1739068;82;21018;-75
2021/08/29 09:49:06;;;;;;;1.32;1.20;;;;;;;15.21;88.80;97067.84;1739164;82;20968;-75
2021/08/29 09:51:59;;;;;;;1.55;1.25;;;;;;;15.21;89.79;97063.83;1736712;82;21018;-75
2021/08/29 09:54:42;;;;;;;2.93;1.27;;;;;;;15.25;88.87;97062.69;1759903;81;20976;-75
2021/08/29 09:57:28;;;;;;;2.55;1.35;;;;;;;15.31;88.62;97062.75;1769570;81;20960;-75
2021/08/29 10:00:09;;;;;;;1.50;1.40;;;;;;;15.41;89.53;97066.55;1766126;81;21011;-75
2021/08/29 10:02:44;;;;;;;1.65;1.02;;;;;;;15.51;88.77;97068.63;1769539;81;21456;-75
2021/08/29 10:05:19;;;;;;;1.20;1.10;;;;;;;15.55;87.59;97070.14;1741531;81;21463;-75
2021/08/29 10:08:09;;;;;;;2.00;1.07;;;;;;;15.62;89.07;97071.47;1738968;82;21055;-75
2021/08/29 10:10:40;;;;;;;1.50;0.98;;;;;;;15.68;89.69;97073.73;1737156;82;21023;-75
2021/08/29 10:13:08;;;;;;;2.45;1.00;;;;;;;15.74;88.56;97067.61;1761460;81;20964;-74
2021/08/29 10:15:37;;;;;;;2.35;1.17;;;;;;;15.71;87.91;97068.17;1769441;81;21559;-75
2021/08/29 10:18:06;;;;;;;1.10;0.95;;;;;;;15.69;86.96;97067.43;1706542;81;21103;-75
2021/08/29 10:20:51;;;;;;;1.72;1.10;;;;;;;15.71;87.68;97071.34;1769373;81;21053;-75
2021/08/29 10:23:20;;;;;;;1.72;1.12;;;;;;;15.73;87.66;97065.91;1714495;82;21002;-75
2021/08/29 10:25:49;;;;;;;2.12;1.17;;;;;;;15.76;86.94;97069.69;1739143;82;20995;-75
2021/08/29 10:28:31;;;;;;;1.30;1.10;;;;;;;15.73;87.05;97068.08;1705969;82;21070;-74
2021/08/29 10:31:05;;;;;;;2.30;1.70;;;;;;;15.71;86.64;97061.50;1740156;81;21474;-75
2021/08/29 10:33:33;;;;;;;3.17;1.30;;;;;;;15.71;86.48;97068.17;1710647;82;21495;-74
2021/08/29 10:36:07;;;;;;;1.62;1.02;;;;;;;15.74;87.05;97066.28;1737680;82;21027;-75
2021/08/29 10:38:50;;;;;;;1.60;1.47;;;;;;;15.79;87.00;97065.50;1642666;87;21119;-75
2021/08/29 10:41:38;;;;;;;3.75;2.45;;;;;;;15.86;87.42;97060.61;1741502;81;21068;-75
2021/08/29 10:44:09;;;;;;;2.33;1.00;;;;;;;15.93;87.36;97059.23;1769434;80;21401;-74
2021/08/29 10:46:48;;;;;;;2.33;1.25;;;;;;;15.89;84.82;97054.58;1669761;86;21125;-74
2021/08/29 10:49:36;;;;;;;1.50;1.27;;;;;;;15.89;86.31;97058.58;1675589;86;21032;-74
2021/08/29 10:52:04;;;;;;;2.52;1.17;;;;;;;15.96;86.79;97053.25;1650763;86;21040;-74
2021/08/29 10:54:36;;;;;;;1.60;1.20;;;;;;;15.94;83.25;97046.27;1683919;82;21058;-74
2021/08/29 10:57:30;;;;;;;2.58;1.22;;;;;;;15.94;83.70;97053.81;1741818;82;22133;-74
2021/08/29 11:00:17;;;;;;;2.20;1.45;;;;;;;15.92;82.76;97050.38;1739154;81;21417;-74
2021/08/29 11:02:50;;;;;;;1.62;1.30;;;;;;;15.93;83.65;97045.43;1764679;81;21087;-74
2021/08/29 11:05:36;;;;;;;1.60;1.00;;;;;;;15.99;84.35;97044.17;1702319;81;21019;-74
2021/08/29 11:08:30;;;;;;;1.62;1.37;;;;;;;16.09;84.35;97045.73;1769397;81;21497;-74
2021/08/29 11:11:00;;;;;;;1.90;1.37;;;;;;;16.15;84.30;97047.14;1755314;81;21070;-74
2021/08/29 11:13:32;;;;;;;1.42;1.32;;;;;;;16.19;85.23;97039.30;1739023;82;21039;-75
2021/08/29 11:16:15;;;;;;;3.60;1.30;;;;;;;16.34;85.91;97046.27;1739055;81;20987;-75
2021/08/29 11:19:06;;;;;;;2.15;1.47;;;;;;;16.34;85.24;97042.72;1740789;82;21047;-74
2021/08/29 11:21:40;;;;;;;3.12;2.80;;;;;;;16.28;83.51;97047.16;1763360;81;21394;-74
2021/08/29 11:25:07;;;;;;;2.37;1.35;;;;;;;16.41;85.83;97047.17;1775826;81;21108;-75
2021/08/29 11:27:44;;;;;;;1.50;1.35;;;;;;;16.45;85.42;97046.00;1775130;79;21044;-74
2021/08/29 11:30:35;;;;;;;2.72;1.60;;;;;;;16.53;84.95;97048.14;1762048;79;20988;-74
2021/08/29 11:33:08;;;;;;;2.10;1.70;;;;;;;16.57;85.13;97049.66;1747665;82;21011;-74
2021/08/29 11:35:50;;;;;;;2.33;1.40;;;;;;;16.68;85.70;97053.77;1746755;82;20940;-74
2021/08/29 11:38:38;;;;;;;1.60;1.10;;;;;;;16.82;85.94;97051.45;1717726;82;21038;-74
2021/08/29 11:41:16;;;;;;;1.70;1.45;;;;;;;16.89;85.65;97047.86;1727766;81;21008;-74
2021/08/29 11:43:48;;;;;;;2.60;1.77;;;;;;;16.91;85.47;97045.95;1775958;80;21183;-74
2021/08/29 11:46:26;;;;;;;2.67;1.40;;;;;;;17.00;85.19;97046.64;1776084;80;21015;-74
2021/08/29 11:49:05;;;;;;;1.40;1.30;;;;;;;17.01;84.73;97049.69;1775878;81;21485;-74
2021/08/29 11:51:37;;;;;;;2.22;1.57;;;;;;;17.05;83.81;97044.13;1758023;81;20952;-74
2021/08/29 11:54:11;;;;;;;5.03;1.70;;;;;;;17.12;84.23;97051.63;1747340;82;21385;-74
2021/08/29 11:56:39;;;;;;;1.70;1.45;;;;;;;17.22;84.64;97047.80;1747533;82;21453;-74
2021/08/29 11:59:08;;;;;;;2.83;1.80;;;;;;;17.28;84.22;97050.02;1747285;82;21389;-74